createdAt,value
2022-10-21T00:00:59.906Z,16.78
2022-10-21T00:01:59.887Z,16.71
2022-10-21T00:02:59.864Z,16.77
2022-10-21T00:03:59.846Z,16.73
2022-10-21T00:06:53.903Z,16.68
2022-10-21T00:07:53.469Z,16.77
2022-10-21T00:08:53.281Z,16.70
2022-10-21T00:09:53.492Z,16.68
2022-10-21T00:10:53.390Z,16.71
2022-10-21T00:11:53.069Z,16.67
2022-10-21T00:12:53.059Z,16.63
2022-10-21T00:13:53.025Z,16.77
2022-10-21T00:14:56.340Z,16.68
2022-10-21T00:15:52.982Z,16.71
2022-10-21T00:16:52.990Z,16.75
2022-10-21T00:17:52.941Z,16.78
2022-10-21T00:18:52.924Z,16.74
2022-10-21T00:19:52.907Z,16.73
2022-10-21T00:20:52.881Z,16.77
2022-10-21T00:21:52.872Z,16.78
2022-10-21T00:22:52.832Z,16.77
2022-10-21T00:23:52.826Z,16.80
2022-10-21T00:24:52.796Z,16.78
2022-10-21T00:25:52.797Z,16.75
2022-10-21T00:26:52.765Z,16.73
2022-10-21T00:27:52.742Z,16.70
2022-10-21T00:28:52.735Z,16.68
2022-10-21T00:29:52.714Z,16.68
2022-10-21T00:30:52.669Z,16.67
2022-10-21T00:31:52.650Z,16.65
2022-10-21T00:32:52.643Z,16.65
2022-10-21T00:33:52.616Z,16.59
2022-10-21T00:34:52.592Z,16.45
2022-10-21T00:35:52.627Z,16.48
2022-10-21T00:36:52.555Z,16.56
2022-10-21T00:37:52.533Z,16.55
2022-10-21T00:38:52.512Z,16.56
2022-10-21T00:39:52.485Z,16.56
2022-10-21T00:40:52.477Z,16.56
2022-10-21T00:41:52.445Z,16.60
2022-10-21T00:42:52.453Z,16.68
2022-10-21T00:43:52.422Z,16.77
2022-10-21T00:44:52.385Z,16.75
2022-10-21T00:45:52.364Z,16.70
2022-10-21T00:46:52.355Z,16.62
2022-10-21T00:47:52.338Z,16.68
2022-10-21T00:48:52.306Z,16.55
2022-10-21T00:49:52.287Z,16.56
2022-10-21T00:50:52.273Z,16.59
2022-10-21T00:51:52.243Z,16.62
2022-10-21T00:52:52.228Z,16.62
2022-10-21T00:53:52.225Z,16.63
2022-10-21T00:54:52.179Z,16.73
2022-10-21T00:55:52.168Z,16.62
2022-10-21T00:57:52.144Z,16.55
2022-10-21T00:58:52.109Z,16.59
2022-10-21T00:59:52.095Z,16.58
2022-10-21T01:00:52.221Z,16.55
2022-10-21T01:01:52.062Z,16.60
2022-10-21T01:02:52.022Z,16.56
2022-10-21T01:03:51.998Z,16.60
2022-10-21T01:04:51.979Z,16.62
2022-10-21T01:05:51.974Z,16.52
2022-10-21T01:06:51.940Z,16.53
2022-10-21T01:07:51.922Z,16.45
2022-10-21T01:08:51.929Z,16.41
2022-10-21T01:09:51.873Z,16.49
2022-10-21T01:10:51.871Z,16.42
2022-10-21T01:11:51.848Z,16.41
2022-10-21T01:12:51.847Z,16.34
2022-10-21T01:13:51.816Z,16.34
2022-10-21T01:14:51.812Z,16.38
2022-10-21T01:15:51.760Z,16.33
2022-10-21T01:16:51.758Z,16.41
2022-10-21T01:17:52.232Z,16.31
2022-10-21T01:18:51.690Z,16.30
2022-10-21T01:19:51.672Z,16.33
2022-10-21T01:20:51.682Z,16.31
2022-10-21T01:21:51.645Z,16.38
2022-10-21T01:22:51.611Z,16.30
2022-10-21T01:23:51.596Z,16.37
2022-10-21T01:24:51.569Z,16.41
2022-10-21T01:25:51.556Z,16.48
2022-10-21T01:26:51.548Z,16.52
2022-10-21T01:27:51.505Z,16.50
2022-10-21T01:28:51.484Z,16.42
2022-10-21T01:29:51.468Z,16.49
2022-10-21T01:30:51.445Z,16.41
2022-10-21T01:31:51.430Z,16.34
2022-10-21T01:32:51.403Z,16.27
2022-10-21T01:33:51.390Z,16.33
2022-10-21T01:34:51.366Z,16.33
2022-10-21T01:35:51.344Z,16.40
2022-10-21T01:36:51.331Z,16.33
2022-10-21T01:37:51.343Z,16.27
2022-10-21T01:38:51.291Z,16.18
2022-10-21T01:39:51.264Z,16.09
2022-10-21T01:40:51.246Z,16.07
2022-10-21T01:41:51.215Z,15.94
2022-10-21T01:42:51.242Z,15.92
2022-10-21T01:43:51.187Z,15.76
2022-10-21T01:44:51.166Z,15.72
2022-10-21T01:45:51.135Z,15.67
2022-10-21T01:46:51.116Z,15.56
2022-10-21T01:47:51.093Z,15.74
2022-10-21T01:48:51.076Z,15.85
2022-10-21T01:50:51.040Z,16.01
2022-10-21T01:51:51.011Z,15.96
2022-10-21T01:52:50.992Z,15.84
2022-10-21T01:53:50.976Z,15.79
2022-10-21T01:54:50.963Z,15.78
2022-10-21T01:55:50.937Z,15.88
2022-10-21T01:56:50.911Z,15.86
2022-10-21T01:57:50.923Z,15.88
2022-10-21T01:58:50.872Z,15.82
2022-10-21T01:59:50.879Z,15.75
2022-10-21T02:00:50.909Z,15.82
2022-10-21T02:01:50.806Z,15.82
2022-10-21T02:02:50.784Z,15.76
2022-10-21T02:03:50.769Z,15.92
2022-10-21T02:04:50.753Z,16.03
2022-10-21T02:05:50.728Z,16.03
2022-10-21T02:06:50.717Z,16.04
2022-10-21T02:07:50.685Z,16.04
2022-10-21T02:08:50.708Z,16.01
2022-10-21T02:09:50.634Z,16.06
2022-10-21T02:10:50.618Z,16.07
2022-10-21T02:11:50.609Z,16.23
2022-10-21T02:12:50.586Z,16.22
2022-10-21T02:13:50.551Z,16.07
2022-10-21T02:14:50.587Z,16.03
2022-10-21T02:15:50.521Z,16.03
2022-10-21T02:16:50.482Z,16.04
2022-10-21T02:17:50.473Z,16.04
2022-10-21T02:18:50.453Z,15.88
2022-10-21T02:19:50.426Z,16.03
2022-10-21T02:20:50.415Z,15.89
2022-10-21T02:21:50.394Z,15.92
2022-10-21T02:22:50.358Z,15.88
2022-10-21T02:23:50.340Z,15.96
2022-10-21T02:24:50.319Z,15.97
2022-10-21T02:25:50.299Z,15.96
2022-10-21T02:26:50.281Z,15.93
2022-10-21T02:27:50.255Z,15.88
2022-10-21T02:28:50.287Z,15.64
2022-10-21T02:29:50.212Z,15.64
2022-10-21T02:30:50.198Z,15.48
2022-10-21T02:31:50.172Z,15.52
2022-10-21T02:32:50.156Z,15.42
2022-10-21T02:33:50.129Z,15.36
2022-10-21T02:34:50.114Z,15.28
2022-10-21T02:35:50.120Z,15.33
2022-10-21T02:36:50.099Z,15.39
2022-10-21T02:37:50.043Z,15.42
2022-10-21T02:38:50.031Z,15.41
2022-10-21T02:39:50.009Z,15.39
2022-10-21T02:40:49.985Z,15.42
2022-10-21T02:41:50.008Z,15.42
2022-10-21T02:42:49.936Z,15.30
2022-10-21T02:43:49.918Z,15.27
2022-10-21T02:44:49.929Z,15.23
2022-10-21T02:45:49.877Z,15.23
2022-10-21T02:46:49.852Z,15.20
2022-10-21T02:47:49.850Z,15.06
2022-10-21T02:48:49.816Z,15.03
2022-10-21T02:49:49.842Z,15.09
2022-10-21T02:50:49.774Z,15.11
2022-10-21T02:51:49.754Z,15.11
2022-10-21T02:52:49.735Z,15.15
2022-10-21T02:53:49.711Z,14.99
2022-10-21T02:54:49.684Z,15.02
2022-10-21T02:55:49.675Z,15.03
2022-10-21T02:56:49.669Z,14.94
2022-10-21T02:57:49.620Z,14.83
2022-10-21T02:58:49.607Z,14.81
2022-10-21T02:59:49.577Z,14.67
2022-10-21T03:00:49.641Z,14.62
2022-10-21T03:01:49.543Z,14.62
2022-10-21T03:02:49.515Z,14.65
2022-10-21T03:03:49.500Z,14.61
2022-10-21T03:04:49.471Z,14.60
2022-10-21T03:05:49.481Z,14.56
2022-10-21T03:06:49.430Z,14.56
2022-10-21T03:07:49.408Z,14.53
2022-10-21T03:08:49.400Z,14.38
2022-10-21T03:09:49.367Z,14.60
2022-10-21T03:10:52.957Z,14.62
2022-10-21T03:11:49.326Z,14.78
2022-10-21T03:12:49.295Z,14.84
2022-10-21T03:13:49.293Z,14.84
2022-10-21T03:14:49.303Z,14.87
2022-10-21T03:15:49.237Z,14.81
2022-10-21T03:16:49.226Z,14.80
2022-10-21T03:17:49.193Z,14.83
2022-10-21T03:18:49.196Z,14.68
2022-10-21T03:19:49.151Z,14.75
2022-10-21T03:20:49.146Z,14.84
2022-10-21T03:21:49.109Z,14.78
2022-10-21T03:22:49.089Z,14.91
2022-10-21T03:23:49.069Z,14.93
2022-10-21T03:24:49.064Z,15.01
2022-10-21T03:25:49.042Z,15.01
2022-10-21T03:26:48.999Z,14.94
2022-10-21T03:27:48.978Z,14.93
2022-10-21T03:28:48.957Z,14.98
2022-10-21T03:29:48.939Z,14.98
2022-10-21T03:30:48.924Z,14.99
2022-10-21T03:31:48.895Z,14.90
2022-10-21T03:32:48.869Z,14.99
2022-10-21T03:33:48.851Z,14.81
2022-10-21T03:34:48.845Z,14.62
2022-10-21T03:35:48.825Z,14.64
2022-10-21T03:36:48.791Z,14.64
2022-10-21T03:37:48.812Z,14.71
2022-10-21T03:38:48.739Z,14.62
2022-10-21T03:39:48.716Z,14.39
2022-10-21T03:40:48.701Z,14.46
2022-10-21T03:41:48.675Z,14.52
2022-10-21T03:42:48.651Z,14.67
2022-10-21T03:43:48.635Z,14.69
2022-10-21T03:44:48.614Z,14.80
2022-10-21T03:45:48.593Z,14.98
2022-10-21T03:46:48.572Z,14.98
2022-10-21T03:47:48.555Z,14.95
2022-10-21T03:48:48.517Z,14.91
2022-10-21T03:49:48.503Z,14.84
2022-10-21T03:50:48.479Z,14.64
2022-10-21T03:51:48.456Z,14.39
2022-10-21T03:52:48.504Z,14.42
2022-10-21T03:53:48.536Z,14.29
2022-10-21T03:54:48.395Z,14.39
2022-10-21T03:55:50.976Z,14.32
2022-10-21T03:56:48.353Z,14.25
2022-10-21T03:57:48.346Z,14.13
2022-10-21T03:58:48.307Z,14.16
2022-10-21T03:59:48.283Z,14.07
2022-10-21T04:00:48.264Z,14.07
2022-10-21T04:01:48.311Z,14.12
2022-10-21T04:02:48.235Z,14.17
2022-10-21T04:03:48.198Z,14.27
2022-10-21T04:04:48.171Z,14.42
2022-10-21T04:05:48.156Z,14.46
2022-10-21T04:06:48.140Z,14.52
2022-10-21T04:07:50.757Z,14.53
2022-10-21T04:08:48.150Z,14.52
2022-10-21T04:09:48.063Z,14.46
2022-10-21T04:10:48.079Z,14.53
2022-10-21T04:11:48.025Z,14.50
2022-10-21T04:12:48.052Z,14.57
2022-10-21T04:13:47.981Z,14.62
2022-10-21T04:14:47.954Z,14.61
2022-10-21T04:15:47.949Z,14.62
2022-10-21T04:16:48.121Z,14.57
2022-10-21T04:17:47.898Z,14.64
2022-10-21T04:18:47.894Z,14.64
2022-10-21T04:19:47.852Z,14.65
2022-10-21T04:20:47.829Z,14.64
2022-10-21T04:21:47.813Z,14.65
2022-10-21T04:22:47.787Z,14.65
2022-10-21T04:23:47.757Z,14.61
2022-10-21T04:24:47.737Z,14.60
2022-10-21T04:25:47.715Z,14.61
2022-10-21T04:26:47.692Z,14.54
2022-10-21T04:27:47.672Z,14.46
2022-10-21T04:28:47.668Z,14.43
2022-10-21T04:29:47.628Z,14.38
2022-10-21T04:30:47.661Z,14.35
2022-10-21T04:31:47.632Z,14.46
2022-10-21T04:32:47.560Z,14.43
2022-10-21T04:33:47.547Z,14.49
2022-10-21T04:34:47.521Z,14.54
2022-10-21T04:35:47.495Z,14.52
2022-10-21T04:36:47.478Z,14.57
2022-10-21T04:37:47.458Z,14.62
2022-10-21T04:38:47.434Z,14.56
2022-10-21T04:39:47.431Z,14.67
2022-10-21T04:40:47.419Z,14.75
2022-10-21T04:41:47.366Z,14.61
2022-10-21T04:42:47.349Z,14.67
2022-10-21T04:43:47.326Z,14.67
2022-10-21T04:44:47.314Z,14.65
2022-10-21T04:45:47.288Z,14.67
2022-10-21T04:46:47.254Z,14.61
2022-10-21T04:47:47.232Z,14.67
2022-10-21T04:48:47.234Z,14.64
2022-10-21T04:49:47.222Z,14.60
2022-10-21T04:50:47.175Z,14.50
2022-10-21T04:51:47.151Z,14.54
2022-10-21T04:52:47.160Z,14.47
2022-10-21T04:53:47.106Z,14.60
2022-10-21T04:54:47.088Z,14.56
2022-10-21T04:55:47.068Z,14.60
2022-10-21T04:56:47.044Z,14.65
2022-10-21T04:57:47.022Z,14.62
2022-10-21T04:58:46.999Z,14.61
2022-10-21T04:59:46.975Z,14.68
2022-10-21T05:00:46.985Z,14.72
2022-10-21T05:01:46.970Z,14.72
2022-10-21T05:02:46.913Z,14.67
2022-10-21T05:03:46.900Z,14.67
2022-10-21T05:04:46.860Z,14.72
2022-10-21T05:05:46.841Z,14.69
2022-10-21T05:06:46.834Z,14.68
2022-10-21T05:07:46.802Z,14.71
2022-10-21T05:08:46.803Z,14.74
2022-10-21T05:09:46.762Z,14.78
2022-10-21T05:10:46.735Z,14.78
2022-10-21T05:11:46.718Z,14.74
2022-10-21T05:12:46.687Z,14.71
2022-10-21T05:13:46.674Z,14.75
2022-10-21T05:14:46.645Z,14.74
2022-10-21T05:15:46.622Z,14.69
2022-10-21T05:16:46.607Z,14.69
2022-10-21T05:17:46.595Z,14.71
2022-10-21T05:18:46.556Z,14.78
2022-10-21T05:19:46.535Z,14.81
2022-10-21T05:20:46.515Z,14.81
2022-10-21T05:21:46.520Z,14.72
2022-10-21T05:22:46.494Z,14.87
2022-10-21T05:23:46.504Z,14.78
2022-10-21T05:24:46.433Z,14.81
2022-10-21T05:25:46.425Z,14.74
2022-10-21T05:26:46.406Z,14.74
2022-10-21T05:27:46.362Z,14.83
2022-10-21T05:28:46.346Z,14.80
2022-10-21T05:29:46.361Z,14.80
2022-10-21T05:30:46.299Z,14.81
2022-10-21T05:31:46.299Z,14.88
2022-10-21T05:32:46.258Z,14.83
2022-10-21T05:33:46.255Z,14.80
2022-10-21T05:34:46.214Z,14.80
2022-10-21T05:35:46.194Z,14.71
2022-10-21T05:36:46.175Z,14.83
2022-10-21T05:37:46.146Z,14.69
2022-10-21T05:38:46.172Z,14.83
2022-10-21T05:39:46.129Z,14.74
2022-10-21T05:40:46.086Z,14.78
2022-10-21T05:41:48.008Z,14.83
2022-10-21T05:42:46.042Z,14.78
2022-10-21T05:43:46.052Z,14.86
2022-10-21T05:44:46.000Z,14.83
2022-10-21T05:45:45.972Z,14.71
2022-10-21T05:46:45.953Z,14.69
2022-10-21T05:47:45.934Z,14.64
2022-10-21T05:48:45.916Z,14.52
2022-10-21T05:49:45.885Z,14.47
2022-10-21T05:50:45.892Z,14.42
2022-10-21T05:51:45.847Z,14.39
2022-10-21T05:52:45.827Z,14.29
2022-10-21T05:53:45.810Z,14.34
2022-10-21T05:54:45.818Z,14.38
2022-10-21T05:55:45.772Z,14.42
2022-10-21T05:56:45.740Z,14.43
2022-10-21T05:57:45.767Z,14.44
2022-10-21T05:58:45.698Z,14.42
2022-10-21T05:59:45.680Z,14.52
2022-10-21T06:00:45.738Z,14.62
2022-10-21T06:01:45.625Z,14.67
2022-10-21T06:02:45.632Z,14.74
2022-10-21T06:03:45.591Z,14.78
2022-10-21T06:04:45.564Z,14.78
2022-10-21T06:05:45.569Z,14.83
2022-10-21T06:06:45.575Z,14.87
2022-10-21T06:07:45.502Z,14.78
2022-10-21T06:08:45.546Z,14.60
2022-10-21T06:09:45.452Z,14.52
2022-10-21T06:10:45.432Z,14.46
2022-10-21T06:11:45.411Z,14.47
2022-10-21T06:12:45.398Z,14.39
2022-10-21T06:13:45.374Z,14.42
2022-10-21T06:14:45.360Z,14.25
2022-10-21T06:15:48.763Z,14.38
2022-10-21T06:16:45.313Z,14.42
2022-10-21T06:17:45.293Z,14.38
2022-10-21T06:18:45.335Z,14.35
2022-10-21T06:19:47.477Z,14.47
2022-10-21T06:20:45.275Z,14.37
2022-10-21T06:21:45.313Z,14.53
2022-10-21T06:22:45.225Z,14.44
2022-10-21T06:23:45.199Z,14.52
2022-10-21T06:24:45.190Z,14.52
2022-10-21T06:25:45.105Z,14.62
2022-10-21T06:26:45.088Z,14.62
2022-10-21T06:27:45.078Z,14.61
2022-10-21T06:28:45.055Z,14.64
2022-10-21T06:29:45.025Z,14.65
2022-10-21T06:30:45.033Z,14.65
2022-10-21T06:31:44.973Z,14.67
2022-10-21T06:32:44.976Z,14.68
2022-10-21T06:33:45.506Z,14.68
2022-10-21T06:34:44.941Z,14.68
2022-10-21T06:35:44.895Z,14.74
2022-10-21T06:36:44.915Z,14.86
2022-10-21T06:37:44.866Z,14.90
2022-10-21T06:38:44.825Z,14.90
2022-10-21T06:39:44.813Z,15.05
2022-10-21T06:40:44.785Z,15.05
2022-10-21T06:41:44.792Z,15.11
2022-10-21T06:42:44.748Z,15.05
2022-10-21T06:43:44.740Z,15.13
2022-10-21T06:44:44.714Z,15.11
2022-10-21T06:45:44.679Z,15.15
2022-10-21T06:46:44.671Z,15.13
2022-10-21T06:47:44.653Z,15.24
2022-10-21T06:48:44.626Z,15.27
2022-10-21T06:49:44.598Z,15.27
2022-10-21T06:50:44.575Z,15.26
2022-10-21T06:51:44.578Z,15.33
2022-10-21T06:52:44.530Z,15.28
2022-10-21T06:53:44.503Z,15.28
2022-10-21T06:54:44.487Z,15.31
2022-10-21T06:55:44.465Z,15.39
2022-10-21T06:56:44.447Z,15.43
2022-10-21T06:57:44.420Z,15.43
2022-10-21T06:58:44.402Z,15.59
2022-10-21T06:59:44.383Z,15.63
2022-10-21T07:00:44.374Z,15.75
2022-10-21T07:02:00.867Z,15.76
2022-10-21T07:02:44.325Z,15.79
2022-10-21T07:03:44.296Z,15.78
2022-10-21T07:04:44.284Z,15.70
2022-10-21T07:05:44.259Z,15.74
2022-10-21T07:06:44.262Z,15.66
2022-10-21T07:07:45.018Z,15.75
2022-10-21T07:08:47.143Z,15.67
2022-10-21T07:09:44.282Z,15.72
2022-10-21T07:10:44.169Z,15.72
2022-10-21T07:11:44.135Z,15.76
2022-10-21T07:12:44.125Z,15.81
2022-10-21T07:13:44.097Z,15.84
2022-10-21T07:14:44.073Z,15.81
2022-10-21T07:15:44.061Z,15.78
2022-10-21T07:16:44.025Z,15.85
2022-10-21T07:17:44.009Z,15.86
2022-10-21T07:18:44.007Z,15.86
2022-10-21T07:19:43.971Z,15.92
2022-10-21T07:20:43.941Z,15.89
2022-10-21T07:21:43.927Z,15.85
2022-10-21T07:22:43.907Z,15.89
2022-10-21T07:23:43.900Z,15.81
2022-10-21T07:24:43.872Z,15.82
2022-10-21T07:25:43.844Z,15.81
2022-10-21T07:26:43.855Z,15.81
2022-10-21T07:27:47.356Z,15.81
2022-10-21T07:28:43.778Z,15.76
2022-10-21T07:29:43.779Z,15.82
2022-10-21T07:30:43.736Z,15.81
2022-10-21T07:31:43.720Z,15.88
2022-10-21T07:32:43.694Z,15.86
2022-10-21T07:33:43.678Z,15.86
2022-10-21T07:34:43.655Z,15.82
2022-10-21T07:35:43.632Z,15.84
2022-10-21T07:36:43.618Z,15.89
2022-10-21T07:37:43.610Z,15.81
2022-10-21T07:38:43.570Z,15.84
2022-10-21T07:39:43.554Z,15.82
2022-10-21T07:40:43.535Z,15.88
2022-10-21T07:41:43.517Z,15.86
2022-10-21T07:42:43.488Z,15.89
2022-10-21T07:43:43.474Z,15.84
2022-10-21T07:44:43.468Z,15.79
2022-10-21T07:45:43.429Z,15.86
2022-10-21T07:46:43.424Z,15.84
2022-10-21T07:47:43.409Z,15.82
2022-10-21T07:48:43.370Z,15.79
2022-10-21T07:49:43.345Z,15.76
2022-10-21T07:50:43.339Z,15.81
2022-10-21T07:51:43.310Z,15.81
2022-10-21T07:52:48.379Z,15.79
2022-10-21T07:53:43.275Z,15.78
2022-10-21T07:54:43.248Z,15.79
2022-10-21T07:55:43.230Z,15.88
2022-10-21T07:56:43.203Z,15.81
2022-10-21T07:57:43.177Z,15.85
2022-10-21T07:58:43.169Z,15.86
2022-10-21T07:59:43.140Z,15.86
2022-10-21T08:00:43.175Z,15.93
2022-10-21T08:01:43.198Z,15.89
2022-10-21T08:02:43.092Z,15.93
2022-10-21T08:03:43.063Z,15.92
2022-10-21T08:04:43.034Z,16.00
2022-10-21T08:05:43.020Z,15.88
2022-10-21T08:06:43.000Z,15.92
2022-10-21T08:07:43.020Z,15.89
2022-10-21T08:08:42.992Z,16.03
2022-10-21T08:09:42.926Z,15.86
2022-10-21T08:10:42.953Z,15.88
2022-10-21T08:11:42.896Z,15.96
2022-10-21T08:12:42.875Z,15.99
2022-10-21T08:13:42.853Z,16.07
2022-10-21T08:14:42.835Z,16.07
2022-10-21T08:15:42.805Z,16.07
2022-10-21T08:16:42.789Z,16.06
2022-10-21T08:17:42.762Z,16.07
2022-10-21T08:18:42.745Z,16.12
2022-10-21T08:19:42.844Z,16.14
2022-10-21T08:20:42.711Z,16.14
2022-10-21T08:21:42.690Z,16.07
2022-10-21T08:22:42.680Z,16.15
2022-10-21T08:23:42.660Z,16.07
2022-10-21T08:24:42.630Z,16.11
2022-10-21T08:25:42.603Z,16.14
2022-10-21T08:26:42.584Z,16.11
2022-10-21T08:27:42.565Z,16.20
2022-10-21T08:28:42.549Z,16.14
2022-10-21T08:29:42.527Z,16.25
2022-10-21T08:30:42.496Z,16.27
2022-10-21T08:31:42.488Z,16.20
2022-10-21T08:32:42.495Z,16.18
2022-10-21T08:33:42.451Z,16.26
2022-10-21T08:34:42.423Z,16.30
2022-10-21T08:35:42.398Z,16.26
2022-10-21T08:36:42.400Z,16.30
2022-10-21T08:37:42.363Z,16.37
2022-10-21T08:38:42.335Z,16.41
2022-10-21T08:39:42.317Z,16.31
2022-10-21T08:40:42.300Z,16.37
2022-10-21T08:41:42.277Z,16.38
2022-10-21T08:42:42.259Z,16.41
2022-10-21T08:43:42.239Z,16.44
2022-10-21T08:44:42.220Z,16.48
2022-10-21T08:45:42.198Z,16.48
2022-10-21T08:46:42.172Z,16.52
2022-10-21T08:47:42.163Z,16.60
2022-10-21T08:48:42.184Z,16.55
2022-10-21T08:49:42.123Z,16.67
2022-10-21T08:50:42.101Z,16.68
2022-10-21T08:51:42.078Z,16.65
2022-10-21T08:52:42.062Z,16.70
2022-10-21T08:53:42.036Z,16.71
2022-10-21T08:54:42.010Z,16.73
2022-10-21T08:55:42.008Z,16.75
2022-10-21T08:56:41.980Z,16.71
2022-10-21T08:57:42.159Z,16.78
2022-10-21T08:58:41.937Z,16.81
2022-10-21T08:59:41.913Z,16.78
2022-10-21T09:00:41.894Z,16.81
2022-10-21T09:01:41.881Z,16.85
2022-10-21T09:02:41.919Z,16.78
2022-10-21T09:03:41.837Z,16.73
2022-10-21T09:04:41.823Z,16.77
2022-10-21T09:05:41.792Z,16.74
2022-10-21T09:06:41.769Z,16.71
2022-10-21T09:07:42.058Z,16.73
2022-10-21T09:08:41.796Z,16.75
2022-10-21T09:09:41.717Z,16.74
2022-10-21T09:10:41.689Z,16.77
2022-10-21T09:11:41.671Z,16.81
2022-10-21T09:12:41.651Z,16.78
2022-10-21T09:13:41.631Z,16.86
2022-10-21T09:14:41.611Z,16.85
2022-10-21T09:15:41.712Z,16.83
2022-10-21T09:16:41.573Z,16.88
2022-10-21T09:17:41.791Z,16.88
2022-10-21T09:18:41.618Z,16.95
2022-10-21T09:19:41.541Z,16.90
2022-10-21T09:20:41.494Z,16.89
2022-10-21T09:21:41.477Z,16.98
2022-10-21T09:22:41.460Z,16.88
2022-10-21T09:23:41.435Z,16.92
2022-10-21T09:24:41.414Z,17.00
2022-10-21T09:25:41.403Z,16.99
2022-10-21T09:26:41.379Z,17.04
2022-10-21T09:27:55.155Z,16.99
2022-10-21T09:28:41.353Z,17.00
2022-10-21T09:29:41.320Z,16.96
2022-10-21T09:30:41.300Z,16.96
2022-10-21T09:31:41.279Z,17.04
2022-10-21T09:32:41.252Z,17.08
2022-10-21T09:33:41.243Z,17.03
2022-10-21T09:34:41.225Z,17.06
2022-10-21T09:35:41.196Z,17.06
2022-10-21T09:36:41.190Z,17.06
2022-10-21T09:37:41.699Z,17.08
2022-10-21T09:38:41.156Z,17.00
2022-10-21T09:39:41.133Z,17.08
2022-10-21T09:40:41.103Z,17.03
2022-10-21T09:41:41.080Z,16.99
2022-10-21T09:42:48.635Z,17.00
2022-10-21T09:43:41.042Z,17.00
2022-10-21T09:44:41.020Z,17.04
2022-10-21T09:45:41.009Z,17.03
2022-10-21T09:46:40.980Z,16.98
2022-10-21T09:47:40.971Z,17.04
2022-10-21T09:48:53.951Z,17.04
2022-10-21T09:50:06.022Z,16.99
2022-10-21T09:50:40.912Z,17.11
2022-10-21T09:51:40.888Z,17.04
2022-10-21T09:52:41.312Z,17.13
2022-10-21T09:53:45.912Z,17.18
2022-10-21T09:54:40.827Z,17.18
2022-10-21T09:55:40.815Z,17.17
2022-10-21T09:56:40.786Z,17.26
2022-10-21T09:57:40.768Z,17.18
2022-10-21T09:58:40.745Z,17.20
2022-10-21T09:59:40.829Z,17.23
2022-10-21T10:00:40.713Z,17.30
2022-10-21T10:01:40.712Z,17.25
2022-10-21T10:02:40.793Z,17.32
2022-10-21T10:03:40.658Z,17.35
2022-10-21T10:04:40.640Z,17.40
2022-10-21T10:05:40.614Z,17.44
2022-10-21T10:06:40.617Z,17.50
2022-10-21T10:07:40.581Z,17.40
2022-10-21T10:08:40.628Z,17.41
2022-10-21T10:09:40.540Z,17.48
2022-10-21T10:10:40.511Z,17.40
2022-10-21T10:11:40.497Z,17.30
2022-10-21T10:12:40.807Z,17.30
2022-10-21T10:13:40.465Z,17.29
2022-10-21T10:14:40.455Z,17.26
2022-10-21T10:15:40.429Z,17.14
2022-10-21T10:16:40.413Z,17.15
2022-10-21T10:17:40.382Z,17.20
2022-10-21T10:18:40.369Z,17.14
2022-10-21T10:19:40.353Z,17.15
2022-10-21T10:20:40.327Z,17.13
2022-10-21T10:21:40.306Z,17.10
2022-10-21T10:22:40.754Z,17.08
2022-10-21T10:23:40.267Z,17.08
2022-10-21T10:24:40.249Z,17.10
2022-10-21T10:25:40.233Z,17.06
2022-10-21T10:26:40.359Z,17.06
2022-10-21T10:27:40.202Z,17.04
2022-10-21T10:29:40.152Z,17.10
2022-10-21T10:30:40.127Z,17.03
2022-10-21T10:31:40.119Z,17.00
2022-10-21T10:32:40.432Z,17.04
2022-10-21T10:33:40.117Z,17.04
2022-10-21T10:34:40.053Z,16.99
2022-10-21T10:35:40.035Z,16.95
2022-10-21T10:36:40.015Z,16.95
2022-10-21T10:37:40.346Z,16.93
2022-10-21T10:38:39.978Z,16.99
2022-10-21T10:39:39.961Z,16.90
2022-10-21T10:40:39.937Z,16.95
2022-10-21T10:41:39.918Z,16.93
2022-10-21T10:42:40.147Z,16.85
2022-10-21T10:43:39.963Z,17.03
2022-10-21T10:44:39.852Z,16.96
2022-10-21T10:45:39.854Z,17.04
2022-10-21T10:46:39.877Z,17.00
2022-10-21T10:47:40.049Z,17.13
2022-10-21T10:48:39.774Z,17.13
2022-10-21T10:49:39.754Z,17.23
2022-10-21T10:50:39.735Z,17.25
2022-10-21T10:51:39.712Z,17.28
2022-10-21T10:52:39.699Z,17.29
2022-10-21T10:53:39.680Z,17.35
2022-10-21T10:54:39.660Z,17.30
2022-10-21T10:55:39.688Z,17.36
2022-10-21T10:56:39.649Z,17.41
2022-10-21T10:57:44.577Z,17.43
2022-10-21T10:58:39.582Z,17.44
2022-10-21T10:59:39.643Z,17.46
2022-10-21T11:00:39.566Z,17.43
2022-10-21T11:01:39.563Z,17.44
2022-10-21T11:02:39.522Z,17.51
2022-10-21T11:03:41.341Z,17.47
2022-10-21T11:04:39.458Z,17.43
2022-10-21T11:05:39.459Z,17.55
2022-10-21T11:06:39.430Z,17.63
2022-10-21T11:07:39.567Z,17.59
2022-10-21T11:08:39.426Z,17.50
2022-10-21T11:09:39.363Z,17.51
2022-10-21T11:10:39.353Z,17.62
2022-10-21T11:11:39.347Z,17.55
2022-10-21T11:12:39.364Z,17.78
2022-10-21T11:13:42.126Z,17.78
2022-10-21T11:14:39.274Z,17.69
2022-10-21T11:15:39.347Z,17.76
2022-10-21T11:16:50.530Z,17.82
2022-10-21T11:17:39.525Z,17.85
2022-10-21T11:18:39.194Z,18.04
2022-10-21T11:19:39.191Z,17.97
2022-10-21T11:20:39.182Z,18.04
2022-10-21T11:21:39.147Z,18.02
2022-10-21T11:22:39.123Z,18.09
2022-10-21T11:23:39.110Z,18.10
2022-10-21T11:24:39.090Z,18.15
2022-10-21T11:25:39.064Z,18.17
2022-10-21T11:26:39.070Z,18.04
2022-10-21T11:27:39.372Z,18.07
2022-10-21T11:28:39.024Z,18.02
2022-10-21T11:29:38.993Z,18.13
2022-10-21T11:30:38.974Z,18.09
2022-10-21T11:31:48.765Z,18.12
2022-10-21T11:32:38.936Z,18.02
2022-10-21T11:33:38.921Z,18.03
2022-10-21T11:34:38.916Z,18.02
2022-10-21T11:35:38.891Z,18.13
2022-10-21T11:36:38.872Z,18.27
2022-10-21T11:37:39.066Z,18.33
2022-10-21T11:38:38.862Z,18.31
2022-10-21T11:39:38.848Z,18.25
2022-10-21T11:40:38.809Z,18.39
2022-10-21T11:41:38.844Z,18.33
2022-10-21T11:42:39.027Z,18.37
2022-10-21T11:43:38.758Z,18.31
2022-10-21T11:44:38.775Z,18.33
2022-10-21T11:45:38.712Z,18.18
2022-10-21T11:46:38.688Z,18.28
2022-10-21T11:47:38.771Z,18.24
2022-10-21T11:48:38.662Z,18.33
2022-10-21T11:49:38.636Z,18.24
2022-10-21T11:50:38.621Z,18.33
2022-10-21T11:51:38.608Z,18.31
2022-10-21T11:52:39.002Z,18.29
2022-10-21T11:53:38.588Z,18.27
2022-10-21T11:54:45.525Z,18.21
2022-10-21T11:55:38.537Z,18.46
2022-10-21T11:56:39.020Z,18.34
2022-10-21T11:57:38.535Z,18.37
2022-10-21T11:58:38.517Z,18.33
2022-10-21T11:59:38.500Z,18.40
2022-10-21T12:00:38.453Z,18.50
2022-10-21T12:01:38.442Z,18.64
2022-10-21T12:02:38.732Z,18.73
2022-10-21T12:03:38.499Z,18.72
2022-10-21T12:04:38.394Z,18.76
2022-10-21T12:05:38.411Z,18.94
2022-10-21T12:06:38.364Z,18.99
2022-10-21T12:07:38.344Z,19.02
2022-10-21T12:08:41.330Z,18.97
2022-10-21T12:09:38.315Z,19.05
2022-10-21T12:10:38.285Z,19.10
2022-10-21T12:11:38.271Z,19.42
2022-10-21T12:12:38.560Z,19.48
2022-10-21T12:13:38.242Z,19.39
2022-10-21T12:14:38.229Z,19.32
2022-10-21T12:15:38.208Z,19.38
2022-10-21T12:16:38.194Z,19.46
2022-10-21T12:17:38.202Z,19.51
2022-10-21T12:18:38.172Z,19.73
2022-10-21T12:19:38.241Z,19.72
2022-10-21T12:20:38.160Z,19.72
2022-10-21T12:21:38.124Z,19.79
2022-10-21T12:22:38.406Z,19.76
2022-10-21T12:23:38.100Z,19.42
2022-10-21T12:24:38.096Z,19.51
2022-10-21T12:25:38.082Z,19.63
2022-10-21T12:27:38.314Z,19.63
2022-10-21T12:28:38.020Z,19.75
2022-10-21T12:29:38.007Z,19.66
2022-10-21T12:30:37.995Z,19.54
2022-10-21T12:31:37.999Z,19.73
2022-10-21T12:32:38.001Z,19.88
2022-10-21T12:33:37.952Z,20.21
2022-10-21T12:34:37.949Z,20.46
2022-10-21T12:35:38.033Z,20.56
2022-10-21T12:36:37.915Z,20.46
2022-10-21T12:37:38.139Z,20.31
2022-10-21T12:38:37.888Z,20.33
2022-10-21T12:39:37.875Z,20.20
2022-10-21T12:40:37.866Z,20.24
2022-10-21T12:41:37.864Z,20.15
2022-10-21T12:42:37.839Z,20.24
2022-10-21T12:43:37.820Z,20.28
2022-10-21T12:44:37.868Z,20.28
2022-10-21T12:45:37.802Z,20.25
2022-10-21T12:46:40.024Z,20.28
2022-10-21T12:47:38.029Z,19.97
2022-10-21T12:48:37.764Z,19.60
2022-10-21T12:49:37.749Z,19.38
2022-10-21T12:50:37.751Z,19.25
2022-10-21T12:51:37.723Z,19.25
2022-10-21T12:52:37.723Z,19.31
2022-10-21T12:53:37.807Z,19.28
2022-10-21T12:54:37.680Z,19.25
2022-10-21T12:55:37.680Z,19.39
2022-10-21T12:56:37.655Z,19.33
2022-10-21T12:57:38.045Z,19.36
2022-10-21T12:58:37.639Z,19.43